Airfield :
LOGIN :

Register | Disclaimer

   EN    FR    IT 

 










Legend :    VFR   Marginal VFR   IFR   Intensive IFR   Very Intensive IFR
Visi :
Ceiling :
>= 8 km
>= 3000ft
5 to 8 km
1000 to 3000 ft
1500m to 5 km
500 to 1000 ft
800 to 1500m
200 to 500 ft
< 800m
< 200 ft
Symbols :   Thunderstorms  Fog  Heavy snow  Heavy precipitations  Wind > 20 kt
SIGMETs :     Misc.  Thunderstorms  Icing  Turbulence  Mountain Waves  Volcanic Ashes






- Airport Elevation : 13 ft
- IATA code : LYX


EGMD - Lydd

CURRENT METAR :
  • 190920Z 22012KT 9999 VCSH FEW019 13/11 Q1001

EXPIRED METARs :
  • 190850Z 24011KT 9999 VCSH FEW019 SCT038 12/09 Q1001
  • 190820Z 23008KT 9999 -SHRA FEW015 SCT031 BKN044 13/11 Q1001
  • 190750Z 21008KT 9999 VCSH FEW021 SCT026 BKN048 11/10 Q1001
  • 190720Z 22010KT 9999 VCSH FEW017 SCT023 BKN028 13/10 Q1001
  • 190650Z AUTO 21014KT 9999 -RA FEW007/// SCT016/// BKN023/// 12/10 Q1000 RERA

TAF TAF EGMD
Valid from the 19 at 09:00 until the 19 at 18:00 UTC


190756Z 1909/1918 23014KT 9999 SCT030
TEMPO 1909/1912 7000 SHRA
ATIS : +44 1797 322 422



MET'MAP, your aeronautical weather chart ! - Copyright ORBIFLY December 2007 - Disclaimer

ORBIFLY MET'MAP TEAM :

Programming & Development : Alexandra Zaïnal
Concept & Development : Baudouin d'Aumeries
Co-Development & Prog : Marc-Olivier Méhu
Technical & hardware support : Manuel Goepfert

Contact : metmap@orbifly.com




SOURCES & CREDITS :

   NOAA